sensor_id;sensor_type;location;lat;lon;timestamp;P1;durP1;ratioP1;P2;durP2;ratioP2
17141;SDS011;32805;53.556;9.944;2024-02-23T00:01:39;1.33;;;0.60;;
17141;SDS011;32805;53.556;9.944;2024-02-23T00:04:06;1.70;;;0.57;;
17141;SDS011;32805;53.556;9.944;2024-02-23T00:06:35;1.95;;;0.90;;
17141;SDS011;32805;53.556;9.944;2024-02-23T00:09:03;2.40;;;0.70;;
17141;SDS011;32805;53.556;9.944;2024-02-23T00:11:30;2.08;;;0.80;;
17141;SDS011;32805;53.556;9.944;2024-02-23T00:14:01;1.77;;;0.80;;
17141;SDS011;32805;53.556;9.944;2024-02-23T00:16:29;4.75;;;1.48;;
17141;SDS011;32805;53.556;9.944;2024-02-23T00:18:56;2.78;;;1.40;;
17141;SDS011;32805;53.556;9.944;2024-02-23T00:21:24;2.40;;;1.50;;
17141;SDS011;32805;53.556;9.944;2024-02-23T00:23:51;2.40;;;1.45;;
17141;SDS011;32805;53.556;9.944;2024-02-23T00:26:19;3.78;;;1.17;;
17141;SDS011;32805;53.556;9.944;2024-02-23T00:28:47;2.15;;;1.25;;
17141;SDS011;32805;53.556;9.944;2024-02-23T00:31:16;2.17;;;1.10;;
17141;SDS011;32805;53.556;9.944;2024-02-23T00:33:43;2.38;;;1.67;;
17141;SDS011;32805;53.556;9.944;2024-02-23T00:36:11;1.10;;;0.95;;
17141;SDS011;32805;53.556;9.944;2024-02-23T00:38:38;1.58;;;0.90;;
17141;SDS011;32805;53.556;9.944;2024-02-23T00:41:11;2.15;;;0.80;;
17141;SDS011;32805;53.556;9.944;2024-02-23T00:43:38;0.95;;;0.70;;
17141;SDS011;32805;53.556;9.944;2024-02-23T00:46:06;1.15;;;0.55;;
17141;SDS011;32805;53.556;9.944;2024-02-23T00:48:35;1.73;;;0.50;;
17141;SDS011;32805;53.556;9.944;2024-02-23T00:51:03;1.25;;;0.73;;
17141;SDS011;32805;53.556;9.944;2024-02-23T00:53:31;0.57;;;0.43;;
17141;SDS011;32805;53.556;9.944;2024-02-23T00:55:58;1.20;;;0.45;;
17141;SDS011;32805;53.556;9.944;2024-02-23T00:58:26;1.38;;;0.50;;
17141;SDS011;32805;53.556;9.944;2024-02-23T01:00:54;1.65;;;0.50;;
17141;SDS011;32805;53.556;9.944;2024-02-23T01:03:22;1.15;;;0.57;;
17141;SDS011;32805;53.556;9.944;2024-02-23T01:05:51;0.70;;;0.40;;
17141;SDS011;32805;53.556;9.944;2024-02-23T01:08:19;0.30;;;0.30;;
17141;SDS011;32805;53.556;9.944;2024-02-23T01:10:46;1.30;;;0.70;;
17141;SDS011;32805;53.556;9.944;2024-02-23T01:13:14;0.35;;;0.35;;
17141;SDS011;32805;53.556;9.944;2024-02-23T01:15:42;1.95;;;0.50;;
17141;SDS011;32805;53.556;9.944;2024-02-23T01:18:09;0.60;;;0.50;;
17141;SDS011;32805;53.556;9.944;2024-02-23T01:20:37;0.52;;;0.45;;
17141;SDS011;32805;53.556;9.944;2024-02-23T01:23:06;0.50;;;0.40;;
17141;SDS011;32805;53.556;9.944;2024-02-23T01:25:34;0.50;;;0.50;;
17141;SDS011;32805;53.556;9.944;2024-02-23T01:28:02;1.17;;;0.50;;
17141;SDS011;32805;53.556;9.944;2024-02-23T01:30:38;0.40;;;0.40;;
17141;SDS011;32805;53.556;9.944;2024-02-23T01:33:11;0.47;;;0.45;;
17141;SDS011;32805;53.556;9.944;2024-02-23T01:35:41;0.50;;;0.47;;
17141;SDS011;32805;53.556;9.944;2024-02-23T01:38:10;1.15;;;0.70;;
17141;SDS011;32805;53.556;9.944;2024-02-23T01:40:45;1.02;;;0.82;;
17141;SDS011;32805;53.556;9.944;2024-02-23T01:43:12;0.40;;;0.40;;
17141;SDS011;32805;53.556;9.944;2024-02-23T01:45:40;0.85;;;0.55;;
17141;SDS011;32805;53.556;9.944;2024-02-23T01:48:07;1.75;;;0.60;;
17141;SDS011;32805;53.556;9.944;2024-02-23T01:50:37;1.55;;;0.40;;
17141;SDS011;32805;53.556;9.944;2024-02-23T01:53:05;0.50;;;0.50;;
17141;SDS011;32805;53.556;9.944;2024-02-23T01:55:34;0.40;;;0.40;;
17141;SDS011;32805;53.556;9.944;2024-02-23T01:58:03;0.50;;;0.40;;
17141;SDS011;32805;53.556;9.944;2024-02-23T02:00:34;1.27;;;0.30;;
17141;SDS011;32805;53.556;9.944;2024-02-23T02:03:02;0.32;;;0.30;;
17141;SDS011;32805;53.556;9.944;2024-02-23T02:05:33;0.98;;;0.20;;
17141;SDS011;32805;53.556;9.944;2024-02-23T02:08:05;0.35;;;0.35;;
17141;SDS011;32805;53.556;9.944;2024-02-23T02:10:36;0.20;;;0.20;;
17141;SDS011;32805;53.556;9.944;2024-02-23T02:13:04;0.20;;;0.20;;
17141;SDS011;32805;53.556;9.944;2024-02-23T02:15:34;0.20;;;0.20;;
17141;SDS011;32805;53.556;9.944;2024-02-23T02:18:02;0.20;;;0.20;;
17141;SDS011;32805;53.556;9.944;2024-02-23T02:20:32;1.00;;;0.20;;
17141;SDS011;32805;53.556;9.944;2024-02-23T02:23:00;0.20;;;0.20;;
17141;SDS011;32805;53.556;9.944;2024-02-23T02:25:28;0.20;;;0.20;;
17141;SDS011;32805;53.556;9.944;2024-02-23T02:27:57;0.25;;;0.25;;
17141;SDS011;32805;53.556;9.944;2024-02-23T02:30:24;0.40;;;0.40;;
17141;SDS011;32805;53.556;9.944;2024-02-23T02:32:52;0.30;;;0.30;;
17141;SDS011;32805;53.556;9.944;2024-02-23T02:35:19;0.32;;;0.30;;
17141;SDS011;32805;53.556;9.944;2024-02-23T02:37:47;0.30;;;0.30;;
17141;SDS011;32805;53.556;9.944;2024-02-23T02:40:15;0.10;;;0.10;;
17141;SDS011;32805;53.556;9.944;2024-02-23T02:42:43;0.13;;;0.13;;
17141;SDS011;32805;53.556;9.944;2024-02-23T02:45:12;0.20;;;0.20;;
17141;SDS011;32805;53.556;9.944;2024-02-23T02:47:39;0.45;;;0.20;;
17141;SDS011;32805;53.556;9.944;2024-02-23T02:50:08;0.20;;;0.20;;
17141;SDS011;32805;53.556;9.944;2024-02-23T02:52:35;0.10;;;0.10;;
17141;SDS011;32805;53.556;9.944;2024-02-23T02:55:03;0.20;;;0.20;;
17141;SDS011;32805;53.556;9.944;2024-02-23T02:57:31;0.20;;;0.20;;
17141;SDS011;32805;53.556;9.944;2024-02-23T02:59:58;0.95;;;0.22;;
17141;SDS011;32805;53.556;9.944;2024-02-23T03:02:27;0.63;;;0.38;;
17141;SDS011;32805;53.556;9.944;2024-02-23T03:04:55;0.73;;;0.30;;
17141;SDS011;32805;53.556;9.944;2024-02-23T03:07:22;0.65;;;0.30;;
17141;SDS011;32805;53.556;9.944;2024-02-23T03:09:50;0.22;;;0.22;;
17141;SDS011;32805;53.556;9.944;2024-02-23T03:12:18;1.85;;;0.38;;
17141;SDS011;32805;53.556;9.944;2024-02-23T03:14:45;0.80;;;0.40;;
17141;SDS011;32805;53.556;9.944;2024-02-23T03:17:13;1.50;;;0.50;;
17141;SDS011;32805;53.556;9.944;2024-02-23T03:19:42;1.10;;;0.30;;
17141;SDS011;32805;53.556;9.944;2024-02-23T03:22:09;1.30;;;0.40;;
17141;SDS011;32805;53.556;9.944;2024-02-23T03:24:37;0.90;;;0.50;;
17141;SDS011;32805;53.556;9.944;2024-02-23T03:27:04;0.57;;;0.50;;
17141;SDS011;32805;53.556;9.944;2024-02-23T03:29:32;0.80;;;0.60;;
17141;SDS011;32805;53.556;9.944;2024-02-23T03:32:00;0.68;;;0.50;;
17141;SDS011;32805;53.556;9.944;2024-02-23T03:34:27;1.70;;;0.70;;
17141;SDS011;32805;53.556;9.944;2024-02-23T03:36:56;1.05;;;0.40;;
17141;SDS011;32805;53.556;9.944;2024-02-23T03:39:24;0.95;;;0.60;;
17141;SDS011;32805;53.556;9.944;2024-02-23T03:41:52;0.75;;;0.68;;
17141;SDS011;32805;53.556;9.944;2024-02-23T03:44:20;1.77;;;0.70;;
17141;SDS011;32805;53.556;9.944;2024-02-23T03:46:47;1.42;;;0.60;;
17141;SDS011;32805;53.556;9.944;2024-02-23T03:49:15;1.98;;;0.50;;
17141;SDS011;32805;53.556;9.944;2024-02-23T03:51:43;0.98;;;0.57;;
17141;SDS011;32805;53.556;9.944;2024-02-23T03:54:12;2.47;;;0.70;;
17141;SDS011;32805;53.556;9.944;2024-02-23T03:56:39;2.83;;;0.70;;
17141;SDS011;32805;53.556;9.944;2024-02-23T03:59:08;1.33;;;0.70;;
17141;SDS011;32805;53.556;9.944;2024-02-23T04:01:36;0.50;;;0.50;;
17141;SDS011;32805;53.556;9.944;2024-02-23T04:04:04;0.50;;;0.50;;
17141;SDS011;32805;53.556;9.944;2024-02-23T04:06:33;1.40;;;0.57;;
17141;SDS011;32805;53.556;9.944;2024-02-23T04:09:01;1.30;;;0.60;;
17141;SDS011;32805;53.556;9.944;2024-02-23T04:11:32;1.35;;;0.52;;
17141;SDS011;32805;53.556;9.944;2024-02-23T04:14:00;1.05;;;0.57;;
17141;SDS011;32805;53.556;9.944;2024-02-23T04:16:28;0.50;;;0.45;;
17141;SDS011;32805;53.556;9.944;2024-02-23T04:18:55;0.85;;;0.60;;
17141;SDS011;32805;53.556;9.944;2024-02-23T04:21:23;1.88;;;0.50;;
17141;SDS011;32805;53.556;9.944;2024-02-23T04:23:51;1.25;;;0.60;;
17141;SDS011;32805;53.556;9.944;2024-02-23T04:26:19;3.53;;;0.90;;
17141;SDS011;32805;53.556;9.944;2024-02-23T04:28:47;3.03;;;0.50;;
17141;SDS011;32805;53.556;9.944;2024-02-23T04:31:15;1.50;;;0.60;;
17141;SDS011;32805;53.556;9.944;2024-02-23T04:33:42;1.73;;;0.80;;
17141;SDS011;32805;53.556;9.944;2024-02-23T04:36:10;0.52;;;0.52;;
17141;SDS011;32805;53.556;9.944;2024-02-23T04:38:38;1.42;;;0.80;;
17141;SDS011;32805;53.556;9.944;2024-02-23T04:41:05;1.73;;;1.10;;
17141;SDS011;32805;53.556;9.944;2024-02-23T04:43:33;1.90;;;0.60;;
17141;SDS011;32805;53.556;9.944;2024-02-23T04:46:02;0.70;;;0.65;;
17141;SDS011;32805;53.556;9.944;2024-02-23T04:48:30;1.92;;;0.82;;
17141;SDS011;32805;53.556;9.944;2024-02-23T04:50:58;1.83;;;0.77;;
17141;SDS011;32805;53.556;9.944;2024-02-23T04:53:26;0.95;;;0.80;;
17141;SDS011;32805;53.556;9.944;2024-02-23T04:55:55;2.25;;;0.90;;
17141;SDS011;32805;53.556;9.944;2024-02-23T04:58:22;1.98;;;1.17;;
17141;SDS011;32805;53.556;9.944;2024-02-23T05:00:50;4.53;;;1.33;;
17141;SDS011;32805;53.556;9.944;2024-02-23T05:03:18;1.27;;;0.80;;
17141;SDS011;32805;53.556;9.944;2024-02-23T05:05:46;3.05;;;1.30;;
17141;SDS011;32805;53.556;9.944;2024-02-23T05:08:14;1.52;;;1.27;;
17141;SDS011;32805;53.556;9.944;2024-02-23T05:10:42;3.78;;;1.23;;
17141;SDS011;32805;53.556;9.944;2024-02-23T05:13:09;5.30;;;1.30;;
17141;SDS011;32805;53.556;9.944;2024-02-23T05:15:37;3.42;;;1.45;;
17141;SDS011;32805;53.556;9.944;2024-02-23T05:18:05;1.40;;;1.08;;
17141;SDS011;32805;53.556;9.944;2024-02-23T05:20:34;3.50;;;1.20;;
17141;SDS011;32805;53.556;9.944;2024-02-23T05:23:01;3.67;;;1.85;;
17141;SDS011;32805;53.556;9.944;2024-02-23T05:25:29;2.40;;;1.17;;
17141;SDS011;32805;53.556;9.944;2024-02-23T05:27:56;4.38;;;1.45;;
17141;SDS011;32805;53.556;9.944;2024-02-23T05:30:24;2.60;;;1.70;;
17141;SDS011;32805;53.556;9.944;2024-02-23T05:32:53;3.58;;;1.48;;
17141;SDS011;32805;53.556;9.944;2024-02-23T05:35:20;2.25;;;1.23;;
17141;SDS011;32805;53.556;9.944;2024-02-23T05:37:49;2.88;;;1.42;;
17141;SDS011;32805;53.556;9.944;2024-02-23T05:40:17;6.10;;;1.58;;
17141;SDS011;32805;53.556;9.944;2024-02-23T05:42:45;4.03;;;2.00;;
17141;SDS011;32805;53.556;9.944;2024-02-23T05:45:12;8.15;;;2.30;;
17141;SDS011;32805;53.556;9.944;2024-02-23T05:47:40;2.13;;;1.40;;
17141;SDS011;32805;53.556;9.944;2024-02-23T05:50:13;2.67;;;1.27;;
17141;SDS011;32805;53.556;9.944;2024-02-23T05:52:41;2.20;;;1.35;;
17141;SDS011;32805;53.556;9.944;2024-02-23T05:55:10;3.88;;;1.40;;
17141;SDS011;32805;53.556;9.944;2024-02-23T05:57:37;2.05;;;1.00;;
17141;SDS011;32805;53.556;9.944;2024-02-23T06:00:05;4.93;;;1.20;;
17141;SDS011;32805;53.556;9.944;2024-02-23T06:02:39;2.88;;;1.30;;
17141;SDS011;32805;53.556;9.944;2024-02-23T06:05:07;2.10;;;1.13;;
17141;SDS011;32805;53.556;9.944;2024-02-23T06:07:35;2.38;;;0.95;;
17141;SDS011;32805;53.556;9.944;2024-02-23T06:10:03;5.72;;;1.17;;
17141;SDS011;32805;53.556;9.944;2024-02-23T06:12:32;1.40;;;0.93;;
17141;SDS011;32805;53.556;9.944;2024-02-23T06:15:00;1.88;;;1.10;;
17141;SDS011;32805;53.556;9.944;2024-02-23T06:17:27;3.63;;;1.10;;
17141;SDS011;32805;53.556;9.944;2024-02-23T06:19:55;3.30;;;1.33;;
17141;SDS011;32805;53.556;9.944;2024-02-23T06:22:25;3.70;;;1.10;;
17141;SDS011;32805;53.556;9.944;2024-02-23T06:24:53;2.42;;;1.30;;
17141;SDS011;32805;53.556;9.944;2024-02-23T06:27:20;3.17;;;1.10;;
17141;SDS011;32805;53.556;9.944;2024-02-23T06:29:50;4.70;;;1.15;;
17141;SDS011;32805;53.556;9.944;2024-02-23T06:32:17;2.15;;;0.98;;
17141;SDS011;32805;53.556;9.944;2024-02-23T06:34:45;5.72;;;1.17;;
17141;SDS011;32805;53.556;9.944;2024-02-23T06:37:13;3.03;;;1.00;;
17141;SDS011;32805;53.556;9.944;2024-02-23T06:39:41;1.38;;;1.00;;
17141;SDS011;32805;53.556;9.944;2024-02-23T06:42:08;1.73;;;1.27;;
17141;SDS011;32805;53.556;9.944;2024-02-23T06:44:35;4.53;;;1.30;;
17141;SDS011;32805;53.556;9.944;2024-02-23T06:47:05;1.42;;;1.27;;
17141;SDS011;32805;53.556;9.944;2024-02-23T06:49:33;1.65;;;1.15;;
17141;SDS011;32805;53.556;9.944;2024-02-23T06:52:00;2.60;;;1.10;;
17141;SDS011;32805;53.556;9.944;2024-02-23T06:54:28;3.47;;;1.52;;
17141;SDS011;32805;53.556;9.944;2024-02-23T06:56:56;2.65;;;1.38;;
17141;SDS011;32805;53.556;9.944;2024-02-23T06:59:24;3.20;;;1.40;;
17141;SDS011;32805;53.556;9.944;2024-02-23T07:01:51;3.58;;;1.65;;
17141;SDS011;32805;53.556;9.944;2024-02-23T07:04:22;1.85;;;1.33;;
17141;SDS011;32805;53.556;9.944;2024-02-23T07:06:50;4.40;;;1.50;;
17141;SDS011;32805;53.556;9.944;2024-02-23T07:09:17;3.67;;;1.90;;
17141;SDS011;32805;53.556;9.944;2024-02-23T07:11:45;4.35;;;2.10;;
17141;SDS011;32805;53.556;9.944;2024-02-23T07:14:13;5.28;;;1.60;;
17141;SDS011;32805;53.556;9.944;2024-02-23T07:16:43;4.60;;;1.85;;
17141;SDS011;32805;53.556;9.944;2024-02-23T07:19:10;3.92;;;1.70;;
17141;SDS011;32805;53.556;9.944;2024-02-23T07:21:40;3.35;;;2.13;;
17141;SDS011;32805;53.556;9.944;2024-02-23T07:24:09;5.07;;;1.50;;
17141;SDS011;32805;53.556;9.944;2024-02-23T07:26:37;5.32;;;1.90;;
17141;SDS011;32805;53.556;9.944;2024-02-23T07:29:05;5.03;;;2.10;;
17141;SDS011;32805;53.556;9.944;2024-02-23T07:31:33;3.63;;;1.90;;
17141;SDS011;32805;53.556;9.944;2024-02-23T07:34:00;5.65;;;1.95;;
17141;SDS011;32805;53.556;9.944;2024-02-23T07:36:28;4.60;;;2.15;;
17141;SDS011;32805;53.556;9.944;2024-02-23T07:38:57;4.10;;;1.95;;
17141;SDS011;32805;53.556;9.944;2024-02-23T07:41:25;3.92;;;2.00;;
17141;SDS011;32805;53.556;9.944;2024-02-23T07:43:53;6.00;;;1.70;;
17141;SDS011;32805;53.556;9.944;2024-02-23T07:46:20;3.85;;;1.95;;
17141;SDS011;32805;53.556;9.944;2024-02-23T07:48:52;2.97;;;2.08;;
17141;SDS011;32805;53.556;9.944;2024-02-23T07:51:20;5.43;;;1.83;;
17141;SDS011;32805;53.556;9.944;2024-02-23T07:53:48;3.72;;;2.08;;
17141;SDS011;32805;53.556;9.944;2024-02-23T07:56:17;4.40;;;2.03;;
17141;SDS011;32805;53.556;9.944;2024-02-23T07:58:44;3.00;;;1.83;;
17141;SDS011;32805;53.556;9.944;2024-02-23T08:01:12;3.20;;;1.75;;
17141;SDS011;32805;53.556;9.944;2024-02-23T08:03:40;2.67;;;1.80;;
17141;SDS011;32805;53.556;9.944;2024-02-23T08:06:09;4.18;;;1.80;;
17141;SDS011;32805;53.556;9.944;2024-02-23T08:08:39;7.53;;;2.25;;
17141;SDS011;32805;53.556;9.944;2024-02-23T08:11:07;4.97;;;1.83;;
17141;SDS011;32805;53.556;9.944;2024-02-23T08:13:36;3.42;;;1.48;;
17141;SDS011;32805;53.556;9.944;2024-02-23T08:16:04;7.50;;;1.80;;
17141;SDS011;32805;53.556;9.944;2024-02-23T08:18:32;3.88;;;1.52;;
17141;SDS011;32805;53.556;9.944;2024-02-23T08:20:59;4.63;;;1.80;;
17141;SDS011;32805;53.556;9.944;2024-02-23T08:23:29;7.45;;;1.83;;
17141;SDS011;32805;53.556;9.944;2024-02-23T08:25:57;5.03;;;1.30;;
17141;SDS011;32805;53.556;9.944;2024-02-23T08:28:26;7.20;;;3.50;;
17141;SDS011;32805;53.556;9.944;2024-02-23T08:30:55;4.55;;;1.45;;
17141;SDS011;32805;53.556;9.944;2024-02-23T08:33:23;5.53;;;1.30;;
17141;SDS011;32805;53.556;9.944;2024-02-23T08:35:50;3.20;;;1.20;;
17141;SDS011;32805;53.556;9.944;2024-02-23T08:38:18;2.78;;;1.73;;
17141;SDS011;32805;53.556;9.944;2024-02-23T08:40:46;6.72;;;1.48;;
17141;SDS011;32805;53.556;9.944;2024-02-23T08:43:14;4.15;;;1.45;;
17141;SDS011;32805;53.556;9.944;2024-02-23T08:45:41;5.13;;;1.27;;
17141;SDS011;32805;53.556;9.944;2024-02-23T08:48:19;3.55;;;1.73;;
17141;SDS011;32805;53.556;9.944;2024-02-23T08:50:47;3.85;;;1.50;;
17141;SDS011;32805;53.556;9.944;2024-02-23T08:53:15;2.38;;;1.35;;
17141;SDS011;32805;53.556;9.944;2024-02-23T08:55:43;3.75;;;1.75;;
17141;SDS011;32805;53.556;9.944;2024-02-23T08:58:10;4.07;;;1.25;;
17141;SDS011;32805;53.556;9.944;2024-02-23T09:00:38;3.10;;;1.63;;
17141;SDS011;32805;53.556;9.944;2024-02-23T09:03:05;4.25;;;1.35;;
17141;SDS011;32805;53.556;9.944;2024-02-23T09:05:34;2.30;;;1.38;;
17141;SDS011;32805;53.556;9.944;2024-02-23T09:08:02;3.53;;;1.48;;
17141;SDS011;32805;53.556;9.944;2024-02-23T09:10:29;6.45;;;1.48;;
17141;SDS011;32805;53.556;9.944;2024-02-23T09:12:57;4.85;;;1.55;;
17141;SDS011;32805;53.556;9.944;2024-02-23T09:15:24;5.30;;;1.70;;
17141;SDS011;32805;53.556;9.944;2024-02-23T09:17:52;2.22;;;1.40;;
17141;SDS011;32805;53.556;9.944;2024-02-23T09:20:19;5.40;;;1.50;;
17141;SDS011;32805;53.556;9.944;2024-02-23T09:22:48;3.58;;;1.77;;
17141;SDS011;32805;53.556;9.944;2024-02-23T09:25:16;4.03;;;1.67;;
17141;SDS011;32805;53.556;9.944;2024-02-23T09:27:44;7.28;;;1.90;;
17141;SDS011;32805;53.556;9.944;2024-02-23T09:30:12;3.83;;;2.08;;
17141;SDS011;32805;53.556;9.944;2024-02-23T09:32:41;6.18;;;1.40;;
17141;SDS011;32805;53.556;9.944;2024-02-23T09:35:09;3.10;;;1.30;;
17141;SDS011;32805;53.556;9.944;2024-02-23T09:37:36;4.75;;;1.40;;
17141;SDS011;32805;53.556;9.944;2024-02-23T09:40:06;4.70;;;1.55;;
17141;SDS011;32805;53.556;9.944;2024-02-23T09:42:33;8.05;;;2.15;;
17141;SDS011;32805;53.556;9.944;2024-02-23T09:45:01;5.40;;;1.90;;
17141;SDS011;32805;53.556;9.944;2024-02-23T09:47:29;3.72;;;1.65;;
17141;SDS011;32805;53.556;9.944;2024-02-23T09:49:57;8.05;;;1.50;;
17141;SDS011;32805;53.556;9.944;2024-02-23T09:52:27;5.53;;;1.55;;
17141;SDS011;32805;53.556;9.944;2024-02-23T09:54:56;7.03;;;1.50;;
17141;SDS011;32805;53.556;9.944;2024-02-23T09:57:24;1.73;;;1.30;;
17141;SDS011;32805;53.556;9.944;2024-02-23T09:59:52;4.57;;;1.60;;
17141;SDS011;32805;53.556;9.944;2024-02-23T10:02:20;3.55;;;1.50;;
17141;SDS011;32805;53.556;9.944;2024-02-23T10:04:47;2.65;;;1.40;;
17141;SDS011;32805;53.556;9.944;2024-02-23T10:07:16;3.63;;;1.58;;
17141;SDS011;32805;53.556;9.944;2024-02-23T10:09:43;6.85;;;1.88;;
17141;SDS011;32805;53.556;9.944;2024-02-23T10:12:11;6.65;;;1.85;;
17141;SDS011;32805;53.556;9.944;2024-02-23T10:14:42;8.27;;;2.55;;
17141;SDS011;32805;53.556;9.944;2024-02-23T10:17:09;4.93;;;1.60;;
17141;SDS011;32805;53.556;9.944;2024-02-23T10:19:37;5.82;;;1.98;;
17141;SDS011;32805;53.556;9.944;2024-02-23T10:22:05;5.20;;;1.50;;
17141;SDS011;32805;53.556;9.944;2024-02-23T10:24:32;4.43;;;1.60;;
17141;SDS011;32805;53.556;9.944;2024-02-23T10:27:00;3.97;;;1.77;;
17141;SDS011;32805;53.556;9.944;2024-02-23T10:29:27;4.07;;;1.33;;
17141;SDS011;32805;53.556;9.944;2024-02-23T10:31:57;3.28;;;1.60;;
17141;SDS011;32805;53.556;9.944;2024-02-23T10:34:25;4.28;;;1.67;;
17141;SDS011;32805;53.556;9.944;2024-02-23T10:36:54;2.15;;;1.42;;
17141;SDS011;32805;53.556;9.944;2024-02-23T10:39:23;3.17;;;1.23;;
17141;SDS011;32805;53.556;9.944;2024-02-23T10:41:55;9.68;;;1.70;;
17141;SDS011;32805;53.556;9.944;2024-02-23T10:44:25;7.50;;;1.50;;
17141;SDS011;32805;53.556;9.944;2024-02-23T10:46:54;4.18;;;1.70;;
17141;SDS011;32805;53.556;9.944;2024-02-23T10:49:24;6.47;;;1.67;;
17141;SDS011;32805;53.556;9.944;2024-02-23T10:51:53;2.40;;;1.40;;
17141;SDS011;32805;53.556;9.944;2024-02-23T10:54:21;2.63;;;1.40;;
17141;SDS011;32805;53.556;9.944;2024-02-23T10:56:49;1.83;;;1.10;;
17141;SDS011;32805;53.556;9.944;2024-02-23T10:59:17;4.35;;;1.40;;
17141;SDS011;32805;53.556;9.944;2024-02-23T11:01:46;5.95;;;1.35;;
17141;SDS011;32805;53.556;9.944;2024-02-23T11:04:15;3.95;;;1.45;;
17141;SDS011;32805;53.556;9.944;2024-02-23T11:06:49;7.82;;;1.58;;
17141;SDS011;32805;53.556;9.944;2024-02-23T11:09:20;3.33;;;1.27;;
17141;SDS011;32805;53.556;9.944;2024-02-23T11:11:54;3.05;;;1.15;;
17141;SDS011;32805;53.556;9.944;2024-02-23T11:14:29;2.05;;;1.20;;
17141;SDS011;32805;53.556;9.944;2024-02-23T11:16:57;5.50;;;1.30;;
17141;SDS011;32805;53.556;9.944;2024-02-23T11:19:32;2.80;;;1.00;;
17141;SDS011;32805;53.556;9.944;2024-02-23T11:22:01;5.10;;;1.02;;
17141;SDS011;32805;53.556;9.944;2024-02-23T11:24:29;5.38;;;1.60;;
17141;SDS011;32805;53.556;9.944;2024-02-23T11:26:57;4.88;;;1.80;;
17141;SDS011;32805;53.556;9.944;2024-02-23T11:29:28;5.00;;;1.90;;
17141;SDS011;32805;53.556;9.944;2024-02-23T11:31:59;3.13;;;1.23;;
17141;SDS011;32805;53.556;9.944;2024-02-23T11:34:30;6.03;;;1.70;;
17141;SDS011;32805;53.556;9.944;2024-02-23T11:36:57;3.65;;;1.63;;
17141;SDS011;32805;53.556;9.944;2024-02-23T11:39:35;5.18;;;1.30;;
17141;SDS011;32805;53.556;9.944;2024-02-23T11:42:04;3.97;;;1.35;;
17141;SDS011;32805;53.556;9.944;2024-02-23T11:44:31;3.22;;;1.02;;
17141;SDS011;32805;53.556;9.944;2024-02-23T11:46:59;4.60;;;1.30;;
17141;SDS011;32805;53.556;9.944;2024-02-23T11:49:27;2.97;;;1.00;;
17141;SDS011;32805;53.556;9.944;2024-02-23T11:51:55;3.47;;;1.25;;
17141;SDS011;32805;53.556;9.944;2024-02-23T11:54:22;3.08;;;1.00;;
17141;SDS011;32805;53.556;9.944;2024-02-23T11:56:51;3.90;;;1.10;;
17141;SDS011;32805;53.556;9.944;2024-02-23T11:59:19;3.60;;;1.75;;
17141;SDS011;32805;53.556;9.944;2024-02-23T12:01:47;2.05;;;1.00;;
17141;SDS011;32805;53.556;9.944;2024-02-23T12:04:15;5.97;;;1.23;;
17141;SDS011;32805;53.556;9.944;2024-02-23T12:06:43;4.88;;;1.17;;
17141;SDS011;32805;53.556;9.944;2024-02-23T12:09:12;3.60;;;1.05;;
17141;SDS011;32805;53.556;9.944;2024-02-23T12:11:39;4.25;;;1.20;;
17141;SDS011;32805;53.556;9.944;2024-02-23T12:14:09;2.80;;;1.02;;
17141;SDS011;32805;53.556;9.944;2024-02-23T12:16:39;3.88;;;1.35;;
17141;SDS011;32805;53.556;9.944;2024-02-23T12:19:07;3.50;;;1.02;;
17141;SDS011;32805;53.556;9.944;2024-02-23T12:21:35;2.78;;;1.00;;
17141;SDS011;32805;53.556;9.944;2024-02-23T12:24:04;3.10;;;0.90;;
17141;SDS011;32805;53.556;9.944;2024-02-23T12:26:32;1.83;;;1.02;;
17141;SDS011;32805;53.556;9.944;2024-02-23T12:29:00;3.40;;;1.40;;
17141;SDS011;32805;53.556;9.944;2024-02-23T12:31:31;3.05;;;1.27;;
17141;SDS011;32805;53.556;9.944;2024-02-23T12:34:04;3.67;;;0.80;;
17141;SDS011;32805;53.556;9.944;2024-02-23T12:36:32;4.32;;;1.10;;
17141;SDS011;32805;53.556;9.944;2024-02-23T12:39:02;3.05;;;1.10;;
17141;SDS011;32805;53.556;9.944;2024-02-23T12:41:29;2.92;;;1.20;;
17141;SDS011;32805;53.556;9.944;2024-02-23T12:43:57;1.65;;;0.80;;
17141;SDS011;32805;53.556;9.944;2024-02-23T12:46:24;2.88;;;0.95;;
17141;SDS011;32805;53.556;9.944;2024-02-23T12:48:53;2.00;;;0.90;;
17141;SDS011;32805;53.556;9.944;2024-02-23T12:51:24;2.72;;;1.17;;
17141;SDS011;32805;53.556;9.944;2024-02-23T12:53:52;2.70;;;0.95;;
17141;SDS011;32805;53.556;9.944;2024-02-23T12:56:20;2.80;;;1.00;;
17141;SDS011;32805;53.556;9.944;2024-02-23T12:58:48;1.88;;;0.80;;
17141;SDS011;32805;53.556;9.944;2024-02-23T13:01:16;3.00;;;1.00;;
17141;SDS011;32805;53.556;9.944;2024-02-23T13:03:43;3.78;;;1.00;;
17141;SDS011;32805;53.556;9.944;2024-02-23T13:06:12;2.90;;;1.00;;
17141;SDS011;32805;53.556;9.944;2024-02-23T13:08:40;1.27;;;0.88;;
17141;SDS011;32805;53.556;9.944;2024-02-23T13:11:09;2.30;;;1.23;;
17141;SDS011;32805;53.556;9.944;2024-02-23T13:13:36;1.60;;;1.10;;
17141;SDS011;32805;53.556;9.944;2024-02-23T13:16:07;4.95;;;1.08;;
17141;SDS011;32805;53.556;9.944;2024-02-23T13:18:36;1.33;;;0.80;;
17141;SDS011;32805;53.556;9.944;2024-02-23T13:21:04;2.05;;;0.80;;
17141;SDS011;32805;53.556;9.944;2024-02-23T13:23:33;2.42;;;1.10;;
17141;SDS011;32805;53.556;9.944;2024-02-23T13:26:02;1.75;;;0.85;;
17141;SDS011;32805;53.556;9.944;2024-02-23T13:28:30;3.17;;;0.95;;
17141;SDS011;32805;53.556;9.944;2024-02-23T13:30:57;2.10;;;0.95;;
17141;SDS011;32805;53.556;9.944;2024-02-23T13:33:25;2.72;;;0.90;;
17141;SDS011;32805;53.556;9.944;2024-02-23T13:35:53;3.33;;;1.08;;
17141;SDS011;32805;53.556;9.944;2024-02-23T13:38:21;2.20;;;0.70;;
17141;SDS011;32805;53.556;9.944;2024-02-23T13:40:50;8.38;;;1.15;;
17141;SDS011;32805;53.556;9.944;2024-02-23T13:43:18;2.80;;;0.98;;
17141;SDS011;32805;53.556;9.944;2024-02-23T13:45:48;3.55;;;1.10;;
17141;SDS011;32805;53.556;9.944;2024-02-23T13:48:16;2.00;;;0.93;;
17141;SDS011;32805;53.556;9.944;2024-02-23T13:50:45;1.25;;;0.73;;
17141;SDS011;32805;53.556;9.944;2024-02-23T13:53:13;1.77;;;0.77;;
17141;SDS011;32805;53.556;9.944;2024-02-23T13:55:41;2.30;;;0.80;;
17141;SDS011;32805;53.556;9.944;2024-02-23T13:58:11;2.80;;;1.08;;
17141;SDS011;32805;53.556;9.944;2024-02-23T14:00:39;3.30;;;0.93;;
17141;SDS011;32805;53.556;9.944;2024-02-23T14:03:07;2.53;;;0.90;;
17141;SDS011;32805;53.556;9.944;2024-02-23T14:05:36;2.22;;;1.00;;
17141;SDS011;32805;53.556;9.944;2024-02-23T14:08:03;3.55;;;0.63;;
17141;SDS011;32805;53.556;9.944;2024-02-23T14:10:34;2.03;;;0.80;;
17141;SDS011;32805;53.556;9.944;2024-02-23T14:13:02;2.53;;;0.80;;
17141;SDS011;32805;53.556;9.944;2024-02-23T14:15:31;4.82;;;1.00;;
17141;SDS011;32805;53.556;9.944;2024-02-23T14:17:58;2.45;;;0.60;;
17141;SDS011;32805;53.556;9.944;2024-02-23T14:20:26;1.67;;;0.90;;
17141;SDS011;32805;53.556;9.944;2024-02-23T14:22:54;3.58;;;0.70;;
17141;SDS011;32805;53.556;9.944;2024-02-23T14:25:22;2.45;;;0.90;;
17141;SDS011;32805;53.556;9.944;2024-02-23T14:27:49;2.10;;;0.95;;
17141;SDS011;32805;53.556;9.944;2024-02-23T14:30:17;2.58;;;1.05;;
17141;SDS011;32805;53.556;9.944;2024-02-23T14:32:47;2.45;;;0.88;;
17141;SDS011;32805;53.556;9.944;2024-02-23T14:35:15;3.55;;;0.70;;
17141;SDS011;32805;53.556;9.944;2024-02-23T14:37:42;2.38;;;0.90;;
17141;SDS011;32805;53.556;9.944;2024-02-23T14:40:12;3.95;;;0.88;;
17141;SDS011;32805;53.556;9.944;2024-02-23T14:42:41;4.65;;;1.00;;
17141;SDS011;32805;53.556;9.944;2024-02-23T14:45:08;5.43;;;1.20;;
17141;SDS011;32805;53.556;9.944;2024-02-23T14:47:39;2.42;;;0.80;;
17141;SDS011;32805;53.556;9.944;2024-02-23T14:50:13;2.00;;;1.30;;
17141;SDS011;32805;53.556;9.944;2024-02-23T14:52:41;2.50;;;1.00;;
17141;SDS011;32805;53.556;9.944;2024-02-23T14:55:10;2.63;;;1.67;;